Time,TemperatureF,DewpointF,PressureIn,WindDirection,WindDirectionDegrees,WindSpeedMPH,WindSpeedGustMPH,Humidity,HourlyPrecipIn,Conditions,Clouds,dailyrainin,SoftwareType,DateUTC
2013-08-18 00:10:00,71.8,62.0,30.00,South,189,0.0,3.0,71,0.00,,,0.00,weatherlink.com 1.10,2013-08-18 05:10:00,
2013-08-18 00:25:00,72.2,62.0,30.00,South,190,0.0,3.0,71,0.00,,,0.00,weatherlink.com 1.10,2013-08-18 05:25:00,
2013-08-18 00:40:00,71.9,63.0,30.00,South,190,0.0,2.0,73,0.00,,,0.00,weatherlink.com 1.10,2013-08-18 05:40:00,
2013-08-18 00:55:00,71.6,63.0,30.00,South,190,0.0,1.0,74,0.00,,,0.00,weatherlink.com 1.10,2013-08-18 05:55:00,
2013-08-18 01:10:00,71.2,63.0,30.00,South,190,0.0,0.0,74,0.00,,,0.00,weatherlink.com 1.10,2013-08-18 06:10:00,
2013-08-18 01:25:00,70.1,62.0,29.99,South,190,0.0,2.0,76,0.00,,,0.00,weatherlink.com 1.10,2013-08-18 06:25:00,
2013-08-18 01:40:00,69.9,62.0,29.99,South,190,0.0,1.0,76,0.00,,,0.00,weatherlink.com 1.10,2013-08-18 06:40:00,
2013-08-18 01:56:00,69.4,62.0,29.99,South,190,0.0,0.0,77,0.00,,,0.00,weatherlink.com 1.10,2013-08-18 06:56:00,
2013-08-18 02:11:00,69.0,62.0,29.99,South,190,0.0,1.0,79,0.00,,,0.00,weatherlink.com 1.10,2013-08-18 07:11:00,
2013-08-18 02:26:00,68.6,62.0,29.99,South,190,0.0,0.0,80,0.00,,,0.00,weatherlink.com 1.10,2013-08-18 07:26:00,
2013-08-18 02:41:00,68.2,62.0,30.00,South,190,0.0,0.0,81,0.00,,,0.00,weatherlink.com 1.10,2013-08-18 07:41:00,
2013-08-18 02:56:00,67.8,62.0,29.99,South,190,0.0,0.0,82,0.00,,,0.00,weatherlink.com 1.10,2013-08-18 07:56:00,
2013-08-18 03:11:00,67.6,62.0,29.99,South,190,0.0,0.0,82,0.00,,,0.00,weatherlink.com 1.10,2013-08-18 08:11:00,
2013-08-18 03:26:00,67.7,62.0,29.99,South,190,0.0,1.0,83,0.00,,,0.00,weatherlink.com 1.10,2013-08-18 08:26:00,
2013-08-18 03:41:00,67.9,63.0,29.99,South,190,0.0,0.0,83,0.00,,,0.00,weatherlink.com 1.10,2013-08-18 08:41:00,
2013-08-18 03:56:00,67.8,63.0,29.99,South,190,0.0,1.0,83,0.00,,,0.00,weatherlink.com 1.10,2013-08-18 08:56:00,
2013-08-18 04:11:00,68.0,63.0,29.99,South,190,0.0,2.0,84,0.00,,,0.00,weatherlink.com 1.10,2013-08-18 09:11:00,
2013-08-18 04:26:00,67.9,63.0,30.00,South,190,0.0,1.0,84,0.00,,,0.00,weatherlink.com 1.10,2013-08-18 09:26:00,
2013-08-18 04:41:00,67.7,63.0,30.00,South,190,0.0,1.0,84,0.00,,,0.00,weatherlink.com 1.10,2013-08-18 09:41:00,
2013-08-18 04:56:00,67.6,63.0,30.00,South,190,0.0,1.0,84,0.00,,,0.00,weatherlink.com 1.10,2013-08-18 09:56:00,
2013-08-18 05:11:00,67.3,63.0,30.00,South,190,0.0,0.0,85,0.00,,,0.00,weatherlink.com 1.10,2013-08-18 10:11:00,
2013-08-18 05:26:00,67.0,62.0,30.00,South,190,0.0,1.0,85,0.00,,,0.00,weatherlink.com 1.10,2013-08-18 10:26:00,
2013-08-18 05:41:00,66.8,62.0,30.00,South,190,0.0,1.0,85,0.00,,,0.00,weatherlink.com 1.10,2013-08-18 10:41:00,
2013-08-18 05:56:00,66.5,62.0,30.00,South,190,0.0,0.0,85,0.00,,,0.00,weatherlink.com 1.10,2013-08-18 10:56:00,
2013-08-18 06:11:00,66.1,62.0,30.00,South,190,0.0,2.0,85,0.00,,,0.00,weatherlink.com 1.10,2013-08-18 11:11:00,
2013-08-18 06:26:00,66.2,62.0,30.01,NNW,345,0.0,1.0,85,0.00,,,0.00,weatherlink.com 1.10,2013-08-18 11:26:00,
2013-08-18 06:41:00,66.0,61.0,30.01,NNW,345,0.0,0.0,85,0.00,,,0.00,weatherlink.com 1.10,2013-08-18 11:41:00,
2013-08-18 06:56:00,65.6,61.0,30.02,NNW,345,0.0,0.0,84,0.00,,,0.00,weatherlink.com 1.10,2013-08-18 11:56:00,
2013-08-18 07:11:00,65.4,61.0,30.02,NNW,345,0.0,0.0,84,0.00,,,0.00,weatherlink.com 1.10,2013-08-18 12:11:00,
2013-08-18 07:26:00,65.6,60.0,30.02,NNW,345,0.0,0.0,83,0.00,,,0.00,weatherlink.com 1.10,2013-08-18 12:26:00,
2013-08-18 07:41:00,66.3,61.0,30.02,NNW,340,0.0,2.0,82,0.00,,,0.00,weatherlink.com 1.10,2013-08-18 12:41:00,
2013-08-18 07:56:00,66.9,61.0,30.03,NNW,340,0.0,0.0,82,0.00,,,0.00,weatherlink.com 1.10,2013-08-18 12:56:00,
2013-08-18 08:11:00,67.8,62.0,30.03,NNW,340,0.0,1.0,82,0.00,,,0.00,weatherlink.com 1.10,2013-08-18 13:11:00,
2013-08-18 08:26:00,69.4,64.0,30.04,NNW,332,0.0,2.0,82,0.00,,,0.00,weatherlink.com 1.10,2013-08-18 13:26:00,
2013-08-18 08:41:00,71.5,67.0,30.04,NW,308,0.0,3.0,84,0.00,,,0.00,weatherlink.com 1.10,2013-08-18 13:41:00,
2013-08-18 08:56:00,73.0,68.0,30.04,WNW,303,0.0,4.0,84,0.00,,,0.00,weatherlink.com 1.10,2013-08-18 13:56:00,
2013-08-18 09:11:00,74.4,69.0,30.04,WNW,303,0.0,3.0,83,0.00,,,0.00,weatherlink.com 1.10,2013-08-18 14:11:00,
2013-08-18 09:26:00,75.8,70.0,30.04,WNW,301,2.0,2.0,81,0.00,,,0.00,weatherlink.com 1.10,2013-08-18 14:26:00,
2013-08-18 09:41:00,77.6,70.0,30.04,West,279,4.0,10.0,78,0.00,,,0.00,weatherlink.com 1.10,2013-08-18 14:41:00,
2013-08-18 09:56:00,79.5,71.0,30.03,WNW,294,0.0,4.0,74,0.00,,,0.00,weatherlink.com 1.10,2013-08-18 14:56:00,
2013-08-18 10:12:00,81.3,71.0,30.04,WNW,288,0.0,5.0,70,0.00,,,0.00,weatherlink.com 1.10,2013-08-18 15:12:00,
2013-08-18 10:27:00,82.6,71.0,30.04,WNW,286,0.0,4.0,67,0.00,,,0.00,weatherlink.com 1.10,2013-08-18 15:27:00,
2013-08-18 10:42:00,82.7,70.0,30.04,WNW,284,0.0,5.0,66,0.00,,,0.00,weatherlink.com 1.10,2013-08-18 15:42:00,
2013-08-18 10:57:00,85.6,69.0,30.04,WNW,293,1.0,6.0,58,0.00,,,0.00,weatherlink.com 1.10,2013-08-18 15:57:00,
2013-08-18 11:12:00,86.9,69.0,30.04,SSW,209,0.0,10.0,55,0.00,,,0.00,weatherlink.com 1.10,2013-08-18 16:12:00,
2013-08-18 11:27:00,85.1,68.0,30.05,WSW,251,2.0,5.0,57,0.00,,,0.00,weatherlink.com 1.10,2013-08-18 16:27:00,
2013-08-18 11:42:00,85.9,68.0,30.04,South,173,0.0,11.0,55,0.00,,,0.00,weatherlink.com 1.10,2013-08-18 16:42:00,
2013-08-18 11:57:00,86.3,67.0,30.04,West,274,0.0,7.0,52,0.00,,,0.00,weatherlink.com 1.10,2013-08-18 16:57:00,
2013-08-18 12:12:00,87.8,67.0,30.04,WSW,251,3.0,6.0,50,0.00,,,0.00,weatherlink.com 1.10,2013-08-18 17:12:00,
2013-08-18 12:27:00,87.1,67.0,30.03,NNW,345,2.0,5.0,51,0.00,,,0.00,weatherlink.com 1.10,2013-08-18 17:27:00,
2013-08-18 12:42:00,87.9,66.0,30.03,South,182,0.0,8.0,48,0.00,,,0.00,weatherlink.com 1.10,2013-08-18 17:42:00,
2013-08-18 12:57:00,87.7,66.0,30.03,WSW,250,1.0,5.0,48,0.00,,,0.00,weatherlink.com 1.10,2013-08-18 17:57:00,
2013-08-18 13:12:00,88.7,66.0,30.02,South,176,4.0,7.0,47,0.00,,,0.00,weatherlink.com 1.10,2013-08-18 18:12:00,
2013-08-18 13:27:00,89.5,66.0,30.02,NW,305,2.0,8.0,46,0.00,,,0.00,weatherlink.com 1.10,2013-08-18 18:27:00,
2013-08-18 13:42:00,91.0,65.0,30.02,SSE,151,0.0,8.0,42,0.00,,,0.00,weatherlink.com 1.10,2013-08-18 18:42:00,
2013-08-18 13:57:00,90.6,65.0,30.02,West,269,0.0,6.0,43,0.00,,,0.00,weatherlink.com 1.10,2013-08-18 18:57:00,
2013-08-18 14:12:00,90.9,65.0,30.02,SSW,196,0.0,7.0,43,0.00,,,0.00,weatherlink.com 1.10,2013-08-18 19:12:00,
2013-08-18 14:27:00,90.2,64.0,30.01,NW,315,0.0,10.0,42,0.00,,,0.00,weatherlink.com 1.10,2013-08-18 19:27:00,
2013-08-18 14:42:00,91.8,64.0,30.00,SSE,155,1.0,6.0,40,0.00,,,0.00,weatherlink.com 1.10,2013-08-18 19:42:00,
2013-08-18 14:57:00,93.5,64.0,30.00,SSE,167,0.0,7.0,37,0.00,,,0.00,weatherlink.com 1.10,2013-08-18 19:57:00,
2013-08-18 15:12:00,93.7,64.0,30.00,West,271,3.0,8.0,37,0.00,,,0.00,weatherlink.com 1.10,2013-08-18 20:12:00,
2013-08-18 15:27:00,93.8,63.0,29.99,South,189,2.0,4.0,36,0.00,,,0.00,weatherlink.com 1.10,2013-08-18 20:27:00,
2013-08-18 15:42:00,94.3,64.0,29.99,South,175,4.0,4.0,37,0.00,,,0.00,weatherlink.com 1.10,2013-08-18 20:42:00,
2013-08-18 15:57:00,94.2,64.0,29.99,SSE,159,1.0,4.0,37,0.00,,,0.00,weatherlink.com 1.10,2013-08-18 20:57:00,
2013-08-18 16:12:00,93.4,64.0,29.98,SSE,156,0.0,6.0,38,0.00,,,0.00,weatherlink.com 1.10,2013-08-18 21:12:00,
2013-08-18 16:27:00,95.1,65.0,29.98,SE,143,0.0,7.0,37,0.00,,,0.00,weatherlink.com 1.10,2013-08-18 21:27:00,
2013-08-18 16:42:00,92.9,66.0,29.98,South,181,0.0,1.0,41,0.00,,,0.00,weatherlink.com 1.10,2013-08-18 21:42:00,
2013-08-18 16:57:00,93.4,66.0,29.97,SW,226,0.0,4.0,40,0.00,,,0.00,weatherlink.com 1.10,2013-08-18 21:57:00,
2013-08-18 17:12:00,94.1,66.0,29.97,South,180,0.0,1.0,39,0.00,,,0.00,weatherlink.com 1.10,2013-08-18 22:12:00,
2013-08-18 17:27:00,93.7,65.0,29.97,SSE,159,0.0,3.0,39,0.00,,,0.00,weatherlink.com 1.10,2013-08-18 22:27:00,
2013-08-18 17:42:00,94.0,65.0,29.97,SSE,159,0.0,1.0,38,0.00,,,0.00,weatherlink.com 1.10,2013-08-18 22:42:00,
2013-08-18 17:57:00,94.1,66.0,29.97,South,179,0.0,1.0,39,0.00,,,0.00,weatherlink.com 1.10,2013-08-18 22:57:00,
2013-08-18 18:12:00,92.8,65.0,29.96,SE,135,0.0,4.0,40,0.00,,,0.00,weatherlink.com 1.10,2013-08-18 23:12:00,
2013-08-18 18:27:00,92.1,65.0,29.96,SE,135,0.0,1.0,41,0.00,,,0.00,weatherlink.com 1.10,2013-08-18 23:27:00,
2013-08-18 18:42:00,90.9,65.0,29.96,SE,135,0.0,1.0,43,0.00,,,0.00,weatherlink.com 1.10,2013-08-18 23:42:00,
2013-08-18 18:57:00,88.7,66.0,29.96,SE,135,0.0,1.0,47,0.00,,,0.00,weatherlink.com 1.10,2013-08-18 23:57:00,
2013-08-18 19:12:00,87.3,65.0,29.96,SE,135,0.0,0.0,48,0.00,,,0.00,weatherlink.com 1.10,2013-08-19 00:12:00,
2013-08-18 19:27:00,86.7,65.0,29.96,SE,135,0.0,0.0,49,0.00,,,0.00,weatherlink.com 1.10,2013-08-19 00:27:00,
2013-08-18 19:42:00,85.7,65.0,29.97,SE,135,0.0,0.0,51,0.00,,,0.00,weatherlink.com 1.10,2013-08-19 00:42:00,
2013-08-18 19:57:00,84.1,66.0,29.97,SE,135,0.0,0.0,55,0.00,,,0.00,weatherlink.com 1.10,2013-08-19 00:57:00,
2013-08-18 20:12:00,82.5,66.0,29.97,SE,135,0.0,0.0,58,0.00,,,0.00,weatherlink.com 1.10,2013-08-19 01:12:00,
2013-08-18 20:28:00,80.7,66.0,29.97,SE,135,0.0,1.0,61,0.00,,,0.00,weatherlink.com 1.10,2013-08-19 01:28:00,
2013-08-18 20:43:00,79.3,66.0,29.98,SE,135,0.0,0.0,64,0.00,,,0.00,weatherlink.com 1.10,2013-08-19 01:43:00,
2013-08-18 20:58:00,78.7,67.0,29.98,SE,135,0.0,0.0,67,0.00,,,0.00,weatherlink.com 1.10,2013-08-19 01:58:00,
2013-08-18 21:13:00,77.5,66.0,29.98,SE,135,0.0,0.0,68,0.00,,,0.00,weatherlink.com 1.10,2013-08-19 02:13:00,
2013-08-18 21:28:00,76.7,65.0,29.99,SE,135,0.0,0.0,68,0.00,,,0.00,weatherlink.com 1.10,2013-08-19 02:28:00,
2013-08-18 21:43:00,76.3,67.0,29.99,SE,135,0.0,0.0,72,0.00,,,0.00,weatherlink.com 1.10,2013-08-19 02:43:00,
2013-08-18 21:59:00,75.6,66.0,29.99,SE,135,0.0,0.0,73,0.00,,,0.00,weatherlink.com 1.10,2013-08-19 02:59:00,
2013-08-18 22:13:00,74.9,66.0,30.00,SE,135,0.0,0.0,74,0.00,,,0.00,weatherlink.com 1.10,2013-08-19 03:13:00,
2013-08-18 22:28:00,74.5,66.0,30.00,SE,135,0.0,0.0,75,0.00,,,0.00,weatherlink.com 1.10,2013-08-19 03:28:00,
2013-08-18 22:43:00,74.3,66.0,30.00,SE,135,0.0,0.0,76,0.00,,,0.00,weatherlink.com 1.10,2013-08-19 03:43:00,
2013-08-18 22:58:00,74.0,66.0,30.00,SE,135,0.0,0.0,76,0.00,,,0.00,weatherlink.com 1.10,2013-08-19 03:58:00,
2013-08-18 23:13:00,73.6,66.0,30.00,SE,135,0.0,0.0,77,0.00,,,0.00,weatherlink.com 1.10,2013-08-19 04:13:00,
2013-08-18 23:28:00,73.3,66.0,30.00,SE,135,0.0,0.0,77,0.00,,,0.00,weatherlink.com 1.10,2013-08-19 04:28:00,
2013-08-18 23:43:00,73.1,66.0,30.00,SE,135,0.0,0.0,78,0.00,,,0.00,weatherlink.com 1.10,2013-08-19 04:43:00,
2013-08-18 23:58:00,72.8,66.0,30.00,SE,135,0.0,0.0,79,0.00,,,0.00,weatherlink.com 1.10,2013-08-19 04:58:00,